Bay City, TX (77404)

3:14 PM CDT on August 23, 2014 (GMT -0500)
Bay City | Change Station
CLOSE
Current Station
Airport
Location: Bay City,
Elevation: 46 ft
Nearby Weather Stations
Active Advisory: Heat Advisory

Elev 46 ft 28.97 °N, 95.86 °W | Updated 19 minutes ago

Clear
Clear
96 °F
Feels Like 100 °F
N
12
Wind Variable Wind from South
Gusts 17 mph

Today
High -- | Low -- °F
--% Chance of Precip.
Yesterday
High -- | Low -- °F
Precip. -- in
6:57 AM 7:55 PM
Waning Crescent, 3% visible
Pressure 29.97 in
Visibility 10.0 miles
Clouds Clear
Heat Index 100 °F
Dew Point 67 °F
Humidity 38%
Rainfall 0.00 in
Snow Depth Not available.
UV 10 out of 12
Pollen 6.50 out of 12
Air Quality Not available.
Flu Activity Not available.
METAR KBYY 231955Z AUTO 17010G15KT 10SM CLR 35/20 A2997 RMK AO2 T03570192

More Conditions Fewer Conditions

Pressure 29.97 in
Visibility 10.0 miles
Clouds Clear
Heat Index 100 °F
Dew Point 67 °F
Humidity 38%
Rainfall 0.00 in
Snow Depth Not available.
UV 10 out of 12
Pollen 6.50 out of 12
Air Quality Not available.
Flu Activity Not available.
METAR KBYY 231955Z AUTO 17010G15KT 10SM CLR 35/20 A2997 RMK AO2 T03570192

More Conditions Fewer Conditions

10-Day Weather Forecast

Almanac

Astronomy

Aug. 23, 2014 Rise Set
Actual Time 6:57 AM CDT 7:55 PM CDT
Civil Twilight 6:32 AM CDT 8:19 PM CDT
Nautical Twilight 6:03 AM CDT 8:48 PM CDT
Astronomical Twilight 5:33 AM CDT 9:18 PM CDT
Moon 5:17 AM CDT 6:39 PM CDT
Length of Visible Light 13h 47m
Length of Day
12h 58m
Tomorrow will be 1m 35s shorter.
Waning Crescent, 3% of the Moon is Illuminated
Today
Waning Crescent
Aug 25
New
Sep 2
First Quarter
Sep 8
Full
Sep 15
Last Quarter

Today's Extremes

State Highs State Lows

Community

WunderPhotos

Upload Photos

1,746,597 photos uploaded!

WunderBlogs® & News

Nearby

Snow Depth

Station Depth Elevation
No new snow has been reported.

Earthquake Activity

City Distance Mag. Time & Date
No recent earthquake activity has been reported nearby.
Minimum magnitude displayed is 2.5.

Coastal Water Temperatures

Place Temperature
Seadrift, TX 89.1 °F
Rockport, TX 89.1 °F
USCG Freeport, TX 87.1 °F

Nearby Weather Stations